SWA2059 KDEN-KSAT
Flight info
| Callsign | SWA2059 |
|---|---|
| Flight time | N/A |
| Altitude | 39000 |
| Route | SLEEK2 SLEEK PNH PRTZY POPPO2 |
| Aircraft | B38M/M-SDE1FGHILORVWXY/HB1 |
Departure
| Time | 2026-05-06 18:18 |
|---|---|
| Airport | Denver International Airport (KDEN) |
Arrival
| Time | N/A |
|---|---|
| Airport | San Antonio International Airport (KSAT) |
| Time | Latitude | Longitude | Altitude | Speed | Heading |
|---|---|---|---|---|---|
| 2026-05-06 17:46 | 39.86350 | -104.67012 | 5376 ft | 0 kts | 180° |
| 2026-05-06 18:04 | 39.86355 | -104.67012 | 5375 ft | 2 kts | 180° |
| 2026-05-06 18:04 | 39.86374 | -104.67012 | 5379 ft | 3 kts | 180° |
| 2026-05-06 18:04 | 39.86394 | -104.67012 | 5376 ft | 3 kts | 180° |
| 2026-05-06 18:04 | 39.86414 | -104.67012 | 5375 ft | 3 kts | 180° |
| 2026-05-06 18:05 | 39.86422 | -104.67011 | 5377 ft | 0 kts | 180° |
| 2026-05-06 18:08 | 39.86428 | -104.66997 | 5375 ft | 5 kts | 355° |
| 2026-05-06 18:08 | 39.86439 | -104.67040 | 5374 ft | 6 kts | 284° |
| 2026-05-06 18:08 | 39.86456 | -104.67130 | 5375 ft | 14 kts | 283° |
| 2026-05-06 18:09 | 39.86472 | -104.67280 | 5378 ft | 17 kts | 275° |
| 2026-05-06 18:09 | 39.86475 | -104.67413 | 5379 ft | 13 kts | 269° |
| 2026-05-06 18:09 | 39.86475 | -104.67514 | 5379 ft | 10 kts | 271° |
| 2026-05-06 18:09 | 39.86476 | -104.67634 | 5379 ft | 17 kts | 270° |
| 2026-05-06 18:10 | 39.86477 | -104.67815 | 5379 ft | 22 kts | 271° |
| 2026-05-06 18:10 | 39.86429 | -104.67955 | 5374 ft | 17 kts | 189° |
| 2026-05-06 18:10 | 39.86332 | -104.67968 | 5377 ft | 8 kts | 218° |
| 2026-05-06 18:10 | 39.86325 | -104.68020 | 5376 ft | 11 kts | 272° |
| 2026-05-06 18:11 | 39.86329 | -104.68171 | 5374 ft | 18 kts | 269° |
| 2026-05-06 18:11 | 39.86329 | -104.68301 | 5373 ft | 5 kts | 269° |
| 2026-05-06 18:11 | 39.86329 | -104.68303 | 5373 ft | 0 kts | 269° |
| 2026-05-06 18:14 | 39.86323 | -104.68362 | 5368 ft | 10 kts | 243° |
| 2026-05-06 18:14 | 39.86262 | -104.68394 | 5369 ft | 9 kts | 179° |
| 2026-05-06 18:14 | 39.86168 | -104.68393 | 5372 ft | 18 kts | 180° |
| 2026-05-06 18:14 | 39.86045 | -104.68391 | 5373 ft | 18 kts | 179° |
| 2026-05-06 18:15 | 39.85876 | -104.68393 | 5373 ft | 27 kts | 182° |
| 2026-05-06 18:15 | 39.85686 | -104.68397 | 5374 ft | 27 kts | 180° |
| 2026-05-06 18:15 | 39.85505 | -104.68398 | 5380 ft | 25 kts | 180° |
| 2026-05-06 18:15 | 39.85335 | -104.68399 | 5381 ft | 25 kts | 184° |
| 2026-05-06 18:16 | 39.85206 | -104.68475 | 5381 ft | 21 kts | 268° |
| 2026-05-06 18:16 | 39.85202 | -104.68681 | 5373 ft | 25 kts | 269° |
| 2026-05-06 18:16 | 39.85198 | -104.68927 | 5360 ft | 30 kts | 268° |
| 2026-05-06 18:16 | 39.85196 | -104.69204 | 5351 ft | 30 kts | 272° |
| 2026-05-06 18:17 | 39.85202 | -104.69499 | 5343 ft | 34 kts | 271° |
| 2026-05-06 18:17 | 39.85263 | -104.69671 | 5341 ft | 18 kts | 12° |
| 2026-05-06 18:17 | 39.85391 | -104.69657 | 5340 ft | 19 kts | 1° |
| 2026-05-06 18:17 | 39.85707 | -104.69653 | 5340 ft | 80 kts | 0° |
| 2026-05-06 18:18 | 39.86477 | -104.69646 | 5335 ft | 142 kts | 0° |
| 2026-05-06 18:18 | 39.87619 | -104.69636 | 5492 ft | 177 kts | 0° |
| 2026-05-06 18:18 | 39.88952 | -104.69685 | 5907 ft | 204 kts | 358° |
| 2026-05-06 18:18 | 39.90301 | -104.70190 | 6880 ft | 207 kts | 328° |
| 2026-05-06 18:19 | 39.91304 | -104.71645 | 7349 ft | 230 kts | 295° |
| 2026-05-06 18:19 | 39.91622 | -104.73801 | 7739 ft | 259 kts | 264° |
| 2026-05-06 18:19 | 39.91023 | -104.76030 | 8586 ft | 269 kts | 236° |
| 2026-05-06 18:19 | 39.89648 | -104.77751 | 9332 ft | 283 kts | 210° |
| 2026-05-06 18:20 | 39.87811 | -104.78579 | 9740 ft | 284 kts | 186° |
| 2026-05-06 18:20 | 39.85837 | -104.78467 | 9897 ft | 284 kts | 165° |
| 2026-05-06 18:20 | 39.83959 | -104.77585 | 10181 ft | 294 kts | 158° |
| 2026-05-06 18:20 | 39.82006 | -104.76530 | 10680 ft | 314 kts | 158° |
| 2026-05-06 18:21 | 39.79932 | -104.75401 | 11214 ft | 331 kts | 158° |
| 2026-05-06 18:21 | 39.77767 | -104.74212 | 11877 ft | 341 kts | 158° |
| 2026-05-06 18:21 | 39.75596 | -104.73009 | 12763 ft | 345 kts | 157° |
| 2026-05-06 18:21 | 39.73363 | -104.71762 | 13592 ft | 351 kts | 157° |
| 2026-05-06 18:22 | 39.71101 | -104.70490 | 14346 ft | 356 kts | 158° |
| 2026-05-06 18:22 | 39.68813 | -104.69180 | 15092 ft | 360 kts | 158° |
| 2026-05-06 18:22 | 39.66505 | -104.67826 | 15821 ft | 365 kts | 157° |
| 2026-05-06 18:22 | 39.64222 | -104.66433 | 16522 ft | 369 kts | 157° |
| 2026-05-06 18:23 | 39.61889 | -104.65008 | 17228 ft | 373 kts | 158° |
| 2026-05-06 18:23 | 39.59517 | -104.63563 | 17918 ft | 377 kts | 158° |
| 2026-05-06 18:23 | 39.57124 | -104.62106 | 18581 ft | 381 kts | 158° |
| 2026-05-06 18:23 | 39.54707 | -104.60637 | 19157 ft | 385 kts | 158° |
| 2026-05-06 18:24 | 39.52269 | -104.59157 | 19758 ft | 388 kts | 158° |
| 2026-05-06 18:24 | 39.49843 | -104.57685 | 20327 ft | 391 kts | 159° |
| 2026-05-06 18:24 | 39.47366 | -104.56183 | 20893 ft | 394 kts | 159° |
| 2026-05-06 18:24 | 39.44916 | -104.54699 | 21446 ft | 397 kts | 159° |
| 2026-05-06 18:25 | 39.42365 | -104.53155 | 22016 ft | 400 kts | 160° |
| 2026-05-06 18:25 | 39.39827 | -104.51619 | 22565 ft | 404 kts | 160° |
| 2026-05-06 18:25 | 39.37267 | -104.50072 | 23109 ft | 407 kts | 160° |
| 2026-05-06 18:25 | 39.34683 | -104.48512 | 23643 ft | 410 kts | 160° |
| 2026-05-06 18:26 | 39.32088 | -104.46945 | 24112 ft | 413 kts | 160° |
| 2026-05-06 18:26 | 39.29494 | -104.45380 | 24547 ft | 416 kts | 160° |
| 2026-05-06 18:26 | 39.26855 | -104.43791 | 24995 ft | 419 kts | 160° |
| 2026-05-06 18:26 | 39.24211 | -104.42199 | 25426 ft | 422 kts | 160° |
| 2026-05-06 18:27 | 39.21525 | -104.40584 | 25852 ft | 425 kts | 160° |
| 2026-05-06 18:27 | 39.18839 | -104.38970 | 26270 ft | 428 kts | 160° |
| 2026-05-06 18:27 | 39.16125 | -104.37340 | 26676 ft | 431 kts | 160° |
| 2026-05-06 18:27 | 39.13351 | -104.35913 | 27047 ft | 428 kts | 170° |
| 2026-05-06 18:28 | 39.10456 | -104.35016 | 27413 ft | 430 kts | 171° |
| 2026-05-06 18:28 | 39.07536 | -104.34075 | 27783 ft | 433 kts | 171° |
| 2026-05-06 18:28 | 39.04607 | -104.33136 | 28164 ft | 436 kts | 171° |
| 2026-05-06 18:28 | 39.01654 | -104.32191 | 28521 ft | 439 kts | 171° |
| 2026-05-06 18:29 | 38.98678 | -104.31240 | 28904 ft | 441 kts | 171° |
| 2026-05-06 18:29 | 38.95689 | -104.30285 | 29277 ft | 444 kts | 171° |
| 2026-05-06 18:29 | 38.93828 | -104.29692 | 29509 ft | 445 kts | 171° |
| 2026-05-06 18:29 | 38.91515 | -104.28955 | 29809 ft | 447 kts | 171° |
| 2026-05-06 18:30 | 38.88487 | -104.27990 | 30173 ft | 449 kts | 171° |
| 2026-05-06 18:30 | 38.85452 | -104.27023 | 30500 ft | 451 kts | 171° |
| 2026-05-06 18:30 | 38.82398 | -104.26052 | 30787 ft | 453 kts | 172° |
| 2026-05-06 18:30 | 38.79334 | -104.25078 | 31070 ft | 455 kts | 171° |
| 2026-05-06 18:31 | 38.77296 | -104.24431 | 31249 ft | 456 kts | 172° |
| 2026-05-06 18:31 | 38.74205 | -104.23450 | 31515 ft | 458 kts | 172° |
| 2026-05-06 18:31 | 38.71110 | -104.22469 | 31798 ft | 460 kts | 172° |
| 2026-05-06 18:31 | 38.67988 | -104.21480 | 32059 ft | 462 kts | 172° |
| 2026-05-06 18:32 | 38.64865 | -104.20492 | 32310 ft | 464 kts | 172° |
| 2026-05-06 18:32 | 38.61725 | -104.19499 | 32633 ft | 464 kts | 172° |
| 2026-05-06 18:32 | 38.58593 | -104.18510 | 32975 ft | 464 kts | 172° |
| 2026-05-06 18:32 | 38.55454 | -104.17519 | 33316 ft | 464 kts | 172° |
| 2026-05-06 18:33 | 38.52329 | -104.16446 | 33622 ft | 469 kts | 165° |
| 2026-05-06 18:33 | 38.49399 | -104.14516 | 33953 ft | 480 kts | 149° |
| 2026-05-06 18:33 | 38.46810 | -104.11878 | 34241 ft | 484 kts | 146° |
| 2026-05-06 18:33 | 38.44207 | -104.09148 | 34440 ft | 486 kts | 146° |
| 2026-05-06 18:34 | 38.41575 | -104.06352 | 34706 ft | 486 kts | 145° |
| 2026-05-06 18:34 | 38.39021 | -104.03616 | 34961 ft | 486 kts | 145° |
| 2026-05-06 18:34 | 38.36432 | -104.00836 | 35210 ft | 486 kts | 145° |
| 2026-05-06 18:34 | 38.33849 | -103.98063 | 35470 ft | 486 kts | 145° |
| 2026-05-06 18:35 | 38.31265 | -103.95289 | 35738 ft | 486 kts | 145° |
| 2026-05-06 18:35 | 38.28685 | -103.92524 | 35986 ft | 486 kts | 145° |
| 2026-05-06 18:35 | 38.26096 | -103.89752 | 36209 ft | 486 kts | 145° |
| 2026-05-06 18:35 | 38.23506 | -103.86980 | 36443 ft | 486 kts | 146° |
| 2026-05-06 18:36 | 38.20922 | -103.84219 | 36655 ft | 486 kts | 146° |
| 2026-05-06 18:36 | 38.18329 | -103.81450 | 36862 ft | 486 kts | 146° |
| 2026-05-06 18:36 | 38.15744 | -103.78691 | 37065 ft | 486 kts | 146° |
| 2026-05-06 18:36 | 38.13149 | -103.75926 | 37267 ft | 487 kts | 146° |
| 2026-05-06 18:37 | 38.10544 | -103.73152 | 37476 ft | 487 kts | 146° |
| 2026-05-06 18:37 | 38.07951 | -103.70394 | 37670 ft | 487 kts | 146° |
| 2026-05-06 18:37 | 38.05253 | -103.67834 | 37843 ft | 478 kts | 156° |
| 2026-05-06 18:37 | 38.02373 | -103.65769 | 38058 ft | 477 kts | 156° |
| 2026-05-06 18:38 | 37.99502 | -103.63656 | 38190 ft | 478 kts | 156° |
| 2026-05-06 18:38 | 37.96623 | -103.61546 | 38377 ft | 477 kts | 156° |
| 2026-05-06 18:38 | 37.93746 | -103.59441 | 38563 ft | 477 kts | 156° |
| 2026-05-06 18:38 | 37.90873 | -103.57343 | 38733 ft | 477 kts | 156° |
| 2026-05-06 18:39 | 37.87999 | -103.55245 | 38892 ft | 477 kts | 157° |
| 2026-05-06 18:39 | 37.85130 | -103.53153 | 39031 ft | 476 kts | 157° |
| 2026-05-06 18:39 | 37.82295 | -103.51088 | 39148 ft | 475 kts | 157° |
| 2026-05-06 18:40 | 37.76564 | -103.46919 | 39181 ft | 474 kts | 157° |
| 2026-05-06 18:40 | 37.70853 | -103.42773 | 39179 ft | 473 kts | 158° |
| 2026-05-06 18:41 | 37.65143 | -103.38634 | 39167 ft | 472 kts | 158° |
| 2026-05-06 18:41 | 37.59444 | -103.34510 | 39165 ft | 472 kts | 158° |
| 2026-05-06 18:42 | 37.53741 | -103.30390 | 39157 ft | 472 kts | 158° |
| 2026-05-06 18:42 | 37.48041 | -103.26281 | 39147 ft | 472 kts | 158° |
| 2026-05-06 18:43 | 37.42342 | -103.22179 | 39132 ft | 472 kts | 159° |
| 2026-05-06 18:43 | 37.36627 | -103.18074 | 39132 ft | 473 kts | 159° |
| 2026-05-06 18:44 | 37.30954 | -103.14006 | 39117 ft | 472 kts | 159° |
| 2026-05-06 18:44 | 37.25247 | -103.09920 | 39109 ft | 472 kts | 159° |
| 2026-05-06 18:45 | 37.19537 | -103.05839 | 39102 ft | 472 kts | 159° |
| 2026-05-06 18:45 | 37.13839 | -103.01774 | 39101 ft | 471 kts | 159° |
| 2026-05-06 18:46 | 37.08145 | -102.97719 | 39091 ft | 470 kts | 160° |
| 2026-05-06 18:46 | 37.02457 | -102.93676 | 39084 ft | 470 kts | 160° |
| 2026-05-06 18:47 | 36.96775 | -102.89644 | 39087 ft | 469 kts | 160° |
| 2026-05-06 18:47 | 36.91105 | -102.85627 | 39070 ft | 468 kts | 160° |
| 2026-05-06 18:48 | 36.85443 | -102.81623 | 39074 ft | 467 kts | 160° |
| 2026-05-06 18:48 | 36.79821 | -102.77653 | 39075 ft | 466 kts | 161° |
| 2026-05-06 18:49 | 36.74184 | -102.73681 | 39078 ft | 465 kts | 161° |
| 2026-05-06 18:49 | 36.68548 | -102.69715 | 39087 ft | 464 kts | 161° |
| 2026-05-06 18:50 | 36.62927 | -102.65766 | 39086 ft | 464 kts | 162° |
| 2026-05-06 18:50 | 36.57308 | -102.61826 | 39088 ft | 463 kts | 162° |
| 2026-05-06 18:51 | 36.51695 | -102.57897 | 39088 ft | 463 kts | 162° |
| 2026-05-06 18:51 | 36.46081 | -102.53974 | 39090 ft | 462 kts | 162° |
| 2026-05-06 18:52 | 36.40482 | -102.50067 | 39096 ft | 462 kts | 163° |